Time;durP1;ratioP1;P1;durP2;ratioP2;P2;SDS_P1;SDS_P2;PMS_P1;PMS_P2;Temp;Humidity;BMP_temperature;BMP_pressure;BME280_temperature;BME280_humidity;BME280_pressure;Samples;Min_cycle;Max_cycle;Signal;HPM_P1;HPM_P2
2024/01/12 00:00:18;;;;;;;60.60;31.20;;;;;;;1.01;48.38;98635.69;5043883;28;20225;-69
2024/01/12 00:02:44;;;;;;;59.47;32.87;;;;;;;0.80;48.46;98639.88;5039527;28;20437;-71
2024/01/12 00:05:09;;;;;;;59.40;31.97;;;;;;;0.83;48.42;98643.19;5045893;28;20473;-68
2024/01/12 00:07:35;;;;;;;61.70;31.90;;;;;;;0.63;48.84;98640.50;5041938;28;20621;-68
2024/01/12 00:10:00;;;;;;;66.03;32.43;;;;;;;0.72;48.17;98646.19;5043890;28;20603;-70
2024/01/12 00:12:26;;;;;;;54.90;31.80;;;;;;;0.79;47.99;98648.53;5042562;28;20183;-69
2024/01/12 00:14:51;;;;;;;70.13;30.70;;;;;;;0.81;48.27;98649.31;5052330;28;20283;-69
2024/01/12 00:17:19;;;;;;;59.00;31.57;;;;;;;0.70;48.86;98647.97;5050490;28;20226;-69
2024/01/12 00:19:48;;;;;;;58.70;30.47;;;;;;;0.75;48.79;98650.38;5038158;28;20267;-67
2024/01/12 00:22:13;;;;;;;57.23;29.07;;;;;;;0.82;49.31;98651.00;5055005;28;20430;-70
2024/01/12 00:24:39;;;;;;;58.70;30.60;;;;;;;0.72;49.80;98651.34;5047283;28;20461;-68
2024/01/12 00:27:04;;;;;;;67.93;30.40;;;;;;;0.69;49.67;98655.78;5042267;28;20179;-67
2024/01/12 00:29:30;;;;;;;67.53;30.83;;;;;;;0.66;49.24;98651.56;5041820;28;20179;-69
2024/01/12 00:31:55;;;;;;;53.77;29.30;;;;;;;0.53;49.06;98650.31;5041438;28;20211;-66
2024/01/12 00:34:21;;;;;;;55.47;30.67;;;;;;;0.68;48.83;98657.50;5052852;28;20184;-69
2024/01/12 00:36:48;;;;;;;49.70;28.27;;;;;;;0.77;48.44;98654.59;5046361;28;20198;-69
2024/01/12 00:39:14;;;;;;;56.30;29.70;;;;;;;0.65;48.63;98649.03;5041400;28;20628;-69
2024/01/12 00:41:40;;;;;;;59.70;31.10;;;;;;;0.72;48.40;98656.50;5037450;28;20544;-67
2024/01/12 00:44:07;;;;;;;66.80;29.70;;;;;;;0.75;48.59;98643.50;5044601;28;20564;-67
2024/01/12 00:46:32;;;;;;;55.83;29.63;;;;;;;0.79;48.54;98651.97;5057265;28;20801;-68
2024/01/12 00:48:58;;;;;;;60.90;31.70;;;;;;;0.82;48.42;98645.84;5048423;28;20540;-68
2024/01/12 00:51:23;;;;;;;63.73;30.87;;;;;;;0.90;48.48;98644.69;5053431;28;20190;-68
2024/01/12 00:53:49;;;;;;;55.47;28.17;;;;;;;0.93;48.17;98648.03;5038295;28;20639;-68
2024/01/12 00:56:14;;;;;;;54.00;28.63;;;;;;;0.60;48.29;98656.94;5050353;28;20208;-66
2024/01/12 00:58:40;;;;;;;56.90;31.53;;;;;;;0.53;48.33;98660.63;5048008;28;20184;-69
2024/01/12 01:01:05;;;;;;;67.23;31.97;;;;;;;0.45;48.73;98659.16;5049586;28;20289;-70
2024/01/12 01:03:31;;;;;;;60.43;30.70;;;;;;;0.42;48.26;98648.94;5048530;28;20262;-69
2024/01/12 01:05:56;;;;;;;62.13;32.07;;;;;;;0.41;48.30;98654.16;5037727;28;20703;-68
2024/01/12 01:08:22;;;;;;;54.97;28.67;;;;;;;0.42;48.96;98654.09;5050887;28;20267;-68
2024/01/12 01:10:47;;;;;;;61.90;32.00;;;;;;;0.54;48.83;98655.44;5046985;28;20190;-68
2024/01/12 01:13:14;;;;;;;61.10;31.53;;;;;;;0.64;48.50;98666.25;5042829;28;20187;-68
2024/01/12 01:15:39;;;;;;;58.37;29.57;;;;;;;0.71;48.42;98654.81;5055683;28;20230;-68
2024/01/12 01:18:04;;;;;;;55.57;29.37;;;;;;;0.81;48.16;98660.50;5051312;28;20441;-67
2024/01/12 01:20:31;;;;;;;60.70;29.00;;;;;;;0.73;48.25;98662.50;5057696;28;20215;-67
2024/01/12 01:22:56;;;;;;;54.77;29.10;;;;;;;0.59;48.04;98671.56;5047299;28;20288;-69
2024/01/12 01:25:23;;;;;;;60.77;30.70;;;;;;;0.55;48.70;98669.16;5048337;28;20536;-68
2024/01/12 01:27:48;;;;;;;61.13;31.17;;;;;;;0.54;48.57;98672.63;5040493;28;20508;-67
2024/01/12 01:30:14;;;;;;;59.30;29.80;;;;;;;0.40;48.70;98665.38;5041557;28;20644;-68
2024/01/12 01:32:39;;;;;;;58.43;29.27;;;;;;;0.48;48.51;98673.69;5032221;28;20660;-68
2024/01/12 01:35:05;;;;;;;56.33;29.30;;;;;;;0.39;48.31;98680.00;5050086;28;20209;-66
2024/01/12 01:37:30;;;;;;;55.37;30.47;;;;;;;0.33;48.64;98669.03;5049731;28;20660;-69
2024/01/12 01:39:56;;;;;;;56.20;28.53;;;;;;;0.38;48.67;98673.16;5036269;28;20194;-67
2024/01/12 01:42:21;;;;;;;56.83;29.70;;;;;;;0.47;48.44;98676.34;5059487;28;20613;-69
2024/01/12 01:44:46;;;;;;;52.67;27.83;;;;;;;0.51;48.26;98678.75;5041382;28;20191;-69
2024/01/12 01:47:12;;;;;;;62.40;31.67;;;;;;;0.40;48.60;98686.84;5043486;28;20316;-68
2024/01/12 01:49:38;;;;;;;55.63;28.90;;;;;;;0.25;48.85;98682.22;5054557;28;20265;-67
2024/01/12 01:52:04;;;;;;;59.30;28.07;;;;;;;0.25;48.76;98682.22;5045590;28;20421;-68
2024/01/12 01:54:29;;;;;;;55.37;28.30;;;;;;;0.25;48.33;98677.91;5029939;28;20570;-69
2024/01/12 01:56:55;;;;;;;57.40;29.00;;;;;;;0.13;49.01;98683.47;5046470;28;20203;-69
2024/01/12 01:59:21;;;;;;;56.80;28.60;;;;;;;0.18;48.97;98679.00;5039000;28;20282;-69
2024/01/12 02:01:46;;;;;;;56.93;29.07;;;;;;;0.36;48.29;98674.97;5043827;28;20450;-69
2024/01/12 02:04:12;;;;;;;52.57;28.70;;;;;;;0.42;48.19;98674.75;5041193;28;20236;-68
2024/01/12 02:06:38;;;;;;;54.77;29.30;;;;;;;0.30;48.49;98676.03;5044249;28;20310;-67
2024/01/12 02:09:04;;;;;;;57.83;29.37;;;;;;;0.35;48.81;98678.44;5043856;28;20186;-67
2024/01/12 02:11:29;;;;;;;51.70;26.27;;;;;;;0.30;48.72;98685.47;5051093;28;20417;-68
2024/01/12 02:13:56;;;;;;;58.00;29.30;;;;;;;0.40;48.71;98675.69;5035192;28;20188;-67
2024/01/12 02:16:21;;;;;;;53.83;27.80;;;;;;;0.47;48.14;98682.31;5048493;28;20215;-67
2024/01/12 02:18:47;;;;;;;56.00;28.40;;;;;;;0.45;48.58;98673.78;5042347;28;20599;-69
2024/01/12 02:21:12;;;;;;;55.77;26.90;;;;;;;0.28;48.44;98677.81;5049571;28;20206;-68
2024/01/12 02:23:38;;;;;;;53.70;29.07;;;;;;;0.29;48.56;98670.88;5056636;28;20202;-67
2024/01/12 02:26:03;;;;;;;52.60;26.83;;;;;;;0.34;48.50;98663.84;5055832;28;20218;-68
2024/01/12 02:28:30;;;;;;;46.90;25.73;;;;;;;0.25;48.21;98671.91;5037808;28;20180;-70
2024/01/12 02:30:56;;;;;;;53.70;27.00;;;;;;;0.21;48.97;98672.91;5036113;28;20337;-67
2024/01/12 02:33:21;;;;;;;46.43;26.70;;;;;;;0.27;48.62;98672.69;5039860;28;20907;-68
2024/01/12 02:35:47;;;;;;;46.60;26.40;;;;;;;-0.09;49.27;98667.84;5053010;28;20202;-69
2024/01/12 02:38:12;;;;;;;56.27;28.37;;;;;;;-0.03;48.76;98665.09;5047264;28;20187;-69
2024/01/12 02:40:37;;;;;;;52.23;27.53;;;;;;;-0.03;48.98;98654.78;5040291;28;20207;-68
2024/01/12 02:43:09;;;;;;;48.97;27.50;;;;;;;0.17;48.80;98650.69;5052752;28;20276;-76
2024/01/12 02:45:34;;;;;;;49.90;27.73;;;;;;;0.29;48.62;98647.69;5051970;28;20649;-68
2024/01/12 02:48:00;;;;;;;51.27;27.23;;;;;;;0.34;48.15;98645.78;5062023;28;20431;-68
2024/01/12 02:50:25;;;;;;;48.10;25.93;;;;;;;0.37;48.02;98640.53;5057771;28;20551;-69
2024/01/12 02:52:51;;;;;;;52.60;27.37;;;;;;;0.29;48.64;98647.69;5061937;28;20183;-68
2024/01/12 02:55:16;;;;;;;48.27;26.73;;;;;;;0.32;48.46;98632.09;5041405;28;20446;-68
2024/01/12 02:57:42;;;;;;;47.70;26.37;;;;;;;0.23;48.55;98638.41;5047163;28;20183;-68
2024/01/12 03:00:07;;;;;;;53.03;27.10;;;;;;;0.30;48.86;98634.75;5041930;28;20202;-69
2024/01/12 03:02:33;;;;;;;59.03;27.33;;;;;;;0.27;48.28;98639.16;5054679;28;20186;-69
2024/01/12 03:04:58;;;;;;;49.53;26.70;;;;;;;0.28;48.62;98633.97;5048129;28;20183;-69
2024/01/12 03:07:24;;;;;;;48.60;27.57;;;;;;;0.28;48.45;98635.66;5054334;28;20259;-69
2024/01/12 03:09:49;;;;;;;51.60;26.40;;;;;;;0.18;48.80;98639.47;5062517;28;20349;-68
2024/01/12 03:12:14;;;;;;;46.87;26.40;;;;;;;0.25;48.56;98631.47;5064501;28;20233;-69
2024/01/12 03:14:40;;;;;;;46.77;27.70;;;;;;;0.06;48.83;98638.16;5058728;28;20215;-67
2024/01/12 03:17:05;;;;;;;47.43;27.03;;;;;;;0.07;48.68;98638.09;5050191;28;20869;-68
2024/01/12 03:19:31;;;;;;;50.63;26.97;;;;;;;0.14;48.56;98636.16;5051111;28;20285;-68
2024/01/12 03:21:56;;;;;;;47.60;26.17;;;;;;;0.14;48.53;98636.97;5059165;28;20305;-68
2024/01/12 03:24:22;;;;;;;50.27;27.50;;;;;;;0.17;48.23;98641.22;5061777;28;20214;-67
2024/01/12 03:26:47;;;;;;;48.07;26.47;;;;;;;0.21;48.68;98639.38;5047573;28;20213;-67
2024/01/12 03:29:12;;;;;;;51.90;27.50;;;;;;;0.28;48.35;98631.38;5043647;28;20180;-67
2024/01/12 03:31:38;;;;;;;45.50;26.00;;;;;;;0.26;48.11;98625.41;5050808;28;20258;-68
2024/01/12 03:34:03;;;;;;;48.67;25.37;;;;;;;0.32;48.26;98632.09;5048291;28;20203;-68
2024/01/12 03:36:29;;;;;;;52.63;28.07;;;;;;;0.00;48.52;98631.47;5049817;28;20289;-68
2024/01/12 03:38:54;;;;;;;48.70;25.20;;;;;;;0.05;48.83;98633.91;5049673;28;20278;-68
2024/01/12 03:41:21;;;;;;;56.73;29.20;;;;;;;-0.01;48.24;98642.69;5058910;28;20686;-68
2024/01/12 03:43:46;;;;;;;48.13;26.00;;;;;;;0.13;48.40;98642.19;5052531;28;20240;-68
2024/01/12 03:46:12;;;;;;;48.43;26.77;;;;;;;0.15;48.44;98636.09;5044669;28;20552;-67
2024/01/12 03:48:39;;;;;;;46.90;26.80;;;;;;;-0.12;48.49;98637.00;5051452;28;20236;-68
2024/01/12 03:51:04;;;;;;;51.13;26.90;;;;;;;-0.20;48.71;98639.84;5055502;28;20546;-67
2024/01/12 03:53:30;;;;;;;51.27;27.30;;;;;;;-0.09;48.28;98636.91;5049903;28;20418;-68
2024/01/12 03:55:55;;;;;;;54.83;25.20;;;;;;;-0.11;48.45;98654.16;5056117;28;20624;-68
2024/01/12 03:58:21;;;;;;;54.57;27.67;;;;;;;-0.19;48.55;98647.53;5053301;28;20183;-67
2024/01/12 04:00:46;;;;;;;52.70;27.50;;;;;;;-0.03;48.43;98645.28;5037449;28;20210;-69
2024/01/12 04:03:11;;;;;;;48.00;25.60;;;;;;;0.07;48.22;98642.41;5042095;28;20236;-69
2024/01/12 04:05:37;;;;;;;49.43;25.70;;;;;;;-0.09;48.14;98642.06;5045728;28;20273;-67
2024/01/12 04:08:02;;;;;;;44.57;25.57;;;;;;;-0.23;48.48;98639.94;5050004;28;20674;-68
2024/01/12 04:10:28;;;;;;;50.97;26.30;;;;;;;-0.31;48.86;98643.59;5053745;28;20592;-68
2024/01/12 04:12:53;;;;;;;49.73;26.50;;;;;;;-0.27;48.71;98644.38;5052959;28;20191;-68
2024/01/12 04:15:19;;;;;;;51.60;27.70;;;;;;;-0.21;48.80;98638.16;5036830;28;20758;-68
2024/01/12 04:17:44;;;;;;;51.00;27.87;;;;;;;-0.19;48.95;98632.06;5042538;28;20199;-68
2024/01/12 04:20:11;;;;;;;52.40;26.77;;;;;;;-0.30;48.44;98636.72;5044786;28;20695;-68
2024/01/12 04:22:37;;;;;;;47.93;25.70;;;;;;;-0.49;49.47;98628.72;5049119;28;20218;-70
2024/01/12 04:25:02;;;;;;;51.73;26.90;;;;;;;-0.33;48.85;98631.66;5046852;28;20453;-69
2024/01/12 04:27:29;;;;;;;46.23;25.90;;;;;;;-0.29;48.71;98629.81;5047705;28;20186;-71
2024/01/12 04:29:56;;;;;;;54.53;26.60;;;;;;;-0.79;49.31;98647.66;5040423;28;20195;-67
2024/01/12 04:32:21;;;;;;;50.63;27.13;;;;;;;-0.69;49.26;98642.22;5047030;28;20421;-69
2024/01/12 04:34:46;;;;;;;51.23;26.60;;;;;;;-0.90;49.34;98644.56;5047278;28;20419;-70
2024/01/12 04:37:12;;;;;;;50.37;26.83;;;;;;;-0.66;49.44;98642.97;5058694;28;20296;-68
2024/01/12 04:39:42;;;;;;;47.63;26.77;;;;;;;-0.60;49.54;98647.09;5056609;28;20179;-68
2024/01/12 04:42:07;;;;;;;53.77;27.37;;;;;;;-0.49;49.14;98639.03;5049108;28;20712;-68
2024/01/12 04:44:32;;;;;;;56.10;29.27;;;;;;;-0.58;48.91;98659.94;5053258;28;20508;-70
2024/01/12 04:46:58;;;;;;;51.03;27.13;;;;;;;-0.50;49.04;98660.53;5054530;28;20769;-68
2024/01/12 04:49:23;;;;;;;49.70;25.83;;;;;;;-0.53;49.14;98664.06;5045630;28;20614;-67
2024/01/12 04:51:49;;;;;;;46.63;25.60;;;;;;;-0.44;48.80;98660.34;5033368;28;20244;-68
2024/01/12 04:54:15;;;;;;;49.40;26.80;;;;;;;-0.45;48.71;98662.97;5052830;28;20183;-70
2024/01/12 04:56:40;;;;;;;54.97;26.57;;;;;;;-0.55;49.02;98668.41;5039898;28;20480;-69
2024/01/12 04:59:05;;;;;;;52.00;28.97;;;;;;;-0.74;48.97;98670.69;5045815;28;20269;-69
2024/01/12 05:01:31;;;;;;;51.03;26.50;;;;;;;-0.59;49.36;98679.69;5050780;28;20237;-68
2024/01/12 05:03:56;;;;;;;54.03;27.07;;;;;;;-0.57;48.93;98682.25;5049800;28;20198;-69
2024/01/12 05:06:22;;;;;;;54.00;27.20;;;;;;;-0.72;49.22;98679.22;5049004;28;20286;-69
2024/01/12 05:08:47;;;;;;;54.07;27.50;;;;;;;-0.72;49.22;98684.38;5055130;28;20261;-69
2024/01/12 05:11:13;;;;;;;53.47;27.93;;;;;;;-0.95;49.47;98692.75;5057122;28;20640;-69
2024/01/12 05:13:38;;;;;;;51.43;26.00;;;;;;;-0.87;49.40;98692.53;5048315;28;20206;-69
2024/01/12 05:16:04;;;;;;;47.77;26.90;;;;;;;-0.70;49.00;98685.19;5048487;28;20302;-68
2024/01/12 05:18:29;;;;;;;52.47;26.40;;;;;;;-0.70;48.78;98686.91;5050795;28;20178;-68
2024/01/12 05:20:55;;;;;;;50.23;27.17;;;;;;;-0.78;49.42;98693.13;5048893;28;20203;-70
2024/01/12 05:23:20;;;;;;;52.27;27.67;;;;;;;-0.82;48.89;98695.84;5052002;28;20181;-69
2024/01/12 05:25:46;;;;;;;55.43;27.33;;;;;;;-0.83;48.76;98702.69;5039606;28;20919;-66
2024/01/12 05:28:12;;;;;;;49.30;26.50;;;;;;;-0.73;49.01;98707.56;5060670;28;20186;-67
2024/01/12 05:30:37;;;;;;;44.03;24.53;;;;;;;-0.75;48.71;98714.50;5049329;28;20188;-68
2024/01/12 05:33:03;;;;;;;49.60;26.00;;;;;;;-0.72;49.17;98711.84;5048389;28;20194;-68
2024/01/12 05:35:28;;;;;;;50.97;25.50;;;;;;;-0.65;48.90;98706.47;5048400;28;20226;-68
2024/01/12 05:37:55;;;;;;;50.73;24.97;;;;;;;-0.71;49.07;98698.09;5049750;28;20182;-70
2024/01/12 05:40:20;;;;;;;51.47;27.43;;;;;;;-0.65;49.14;98695.34;5037404;28;20206;-69
2024/01/12 05:42:46;;;;;;;51.43;26.50;;;;;;;-0.55;48.81;98683.88;5049465;28;20517;-68
2024/01/12 05:45:11;;;;;;;49.67;26.00;;;;;;;-0.55;48.76;98688.16;5048779;28;20666;-68
2024/01/12 05:47:37;;;;;;;60.70;25.80;;;;;;;-0.52;48.20;98680.34;5053291;28;20590;-68
2024/01/12 05:50:03;;;;;;;48.77;26.87;;;;;;;-0.60;48.48;98687.47;5053314;28;20182;-68
2024/01/12 05:52:29;;;;;;;58.33;29.27;;;;;;;-0.67;48.50;98686.81;5052598;28;20175;-70
2024/01/12 05:54:55;;;;;;;55.60;28.53;;;;;;;-0.62;48.49;98678.06;5046363;28;20426;-67
2024/01/12 05:57:20;;;;;;;76.43;33.97;;;;;;;-0.73;48.16;98677.53;5045416;28;20426;-68
2024/01/12 05:59:46;;;;;;;98.27;40.00;;;;;;;-0.84;48.84;98679.59;5044788;28;20655;-68
2024/01/12 06:02:14;;;;;;;101.17;43.47;;;;;;;-0.75;48.56;98683.59;5046834;28;20215;-68
2024/01/12 06:04:40;;;;;;;120.97;46.20;;;;;;;-0.76;48.96;98687.09;5053393;28;20189;-67
2024/01/12 06:07:06;;;;;;;103.80;42.73;;;;;;;-0.80;48.78;98682.03;5047692;28;20445;-68
2024/01/12 06:09:31;;;;;;;79.47;36.50;;;;;;;-0.91;48.87;98685.78;5053150;28;20183;-71
2024/01/12 06:11:57;;;;;;;65.77;31.57;;;;;;;-0.88;48.99;98685.69;5041350;28;20290;-71
2024/01/12 06:14:22;;;;;;;59.57;30.10;;;;;;;-0.87;49.00;98670.19;5042044;28;20422;-69
2024/01/12 06:16:48;;;;;;;67.23;31.33;;;;;;;-0.79;48.92;98670.84;5040291;28;20223;-67
2024/01/12 06:19:13;;;;;;;66.80;33.37;;;;;;;-1.09;49.66;98672.56;5037913;28;20270;-68
2024/01/12 06:21:40;;;;;;;73.73;35.40;;;;;;;-1.32;50.62;98675.75;5058892;28;20234;-68
2024/01/12 06:24:05;;;;;;;73.80;34.23;;;;;;;-1.42;50.06;98677.75;5051806;28;20191;-69
2024/01/12 06:26:31;;;;;;;129.73;54.30;;;;;;;-1.47;50.26;98674.47;5042342;28;20498;-69
2024/01/12 06:28:58;;;;;;;144.93;59.17;;;;;;;-1.58;50.30;98680.75;5041857;28;20197;-69
2024/01/12 06:31:23;;;;;;;167.87;67.80;;;;;;;-1.70;50.60;98687.03;5039871;28;20226;-68
2024/01/12 06:33:48;;;;;;;138.03;55.53;;;;;;;-1.39;50.45;98682.81;5047492;28;20425;-67
2024/01/12 06:36:14;;;;;;;135.53;54.87;;;;;;;-1.20;49.67;98672.84;5040363;28;20215;-67
2024/01/12 06:38:39;;;;;;;111.87;48.17;;;;;;;-1.03;49.38;98679.28;5052898;28;20273;-68
2024/01/12 06:41:05;;;;;;;98.70;44.07;;;;;;;-0.99;48.99;98678.28;5057421;28;20241;-67
2024/01/12 06:43:30;;;;;;;107.60;47.27;;;;;;;-1.06;49.32;98684.50;5055309;28;20261;-69
2024/01/12 06:45:56;;;;;;;102.63;44.60;;;;;;;-1.05;49.19;98666.44;5058860;28;20303;-67
2024/01/12 06:48:21;;;;;;;80.77;38.93;;;;;;;-1.14;49.13;98672.69;5043235;28;20188;-69
2024/01/12 06:50:47;;;;;;;76.80;34.93;;;;;;;-1.17;49.58;98677.06;5059160;28;20182;-69
2024/01/12 06:53:14;;;;;;;64.80;33.30;;;;;;;-1.04;49.63;98678.41;5059768;28;20194;-66
2024/01/12 06:55:39;;;;;;;80.97;37.17;;;;;;;-1.02;49.41;98676.63;5061053;28;20220;-69
2024/01/12 06:58:05;;;;;;;81.47;36.83;;;;;;;-1.20;49.97;98678.00;5053396;28;20421;-70
2024/01/12 07:00:30;;;;;;;92.03;39.00;;;;;;;-1.02;50.27;98680.97;5061337;28;20202;-67
2024/01/12 07:02:57;;;;;;;87.43;37.20;;;;;;;-1.18;50.15;98670.22;5049072;28;20209;-68
2024/01/12 07:05:23;;;;;;;82.63;38.10;;;;;;;-1.22;49.82;98666.06;5044107;28;20491;-67
2024/01/12 07:07:48;;;;;;;77.30;38.17;;;;;;;-1.13;49.78;98668.38;5062128;28;20183;-68
2024/01/12 07:10:14;;;;;;;80.67;35.20;;;;;;;-1.20;50.02;98680.56;5052186;28;20722;-68
2024/01/12 07:12:39;;;;;;;75.43;35.50;;;;;;;-1.12;49.83;98677.78;5050984;28;20618;-68
2024/01/12 07:15:06;;;;;;;67.47;32.87;;;;;;;-1.01;49.50;98678.34;5066169;28;20186;-67
2024/01/12 07:17:31;;;;;;;78.57;34.40;;;;;;;-0.95;49.51;98680.75;5050593;28;20241;-69
2024/01/12 07:19:57;;;;;;;69.50;32.57;;;;;;;-0.83;49.14;98676.97;5065100;28;20832;-68
2024/01/12 07:22:22;;;;;;;66.70;33.70;;;;;;;-0.98;49.15;98682.53;5039864;28;20179;-67
2024/01/12 07:24:48;;;;;;;72.10;35.57;;;;;;;-0.99;49.45;98680.84;5052250;28;20206;-66
2024/01/12 07:27:14;;;;;;;61.20;32.70;;;;;;;-1.04;49.17;98675.84;5043086;28;20204;-69
2024/01/12 07:29:40;;;;;;;69.30;31.80;;;;;;;-1.06;49.25;98680.19;5055616;28;20250;-66
2024/01/12 07:32:05;;;;;;;64.27;32.67;;;;;;;-1.08;49.42;98682.81;5055097;28;20604;-66
2024/01/12 07:34:31;;;;;;;74.53;34.70;;;;;;;-1.08;49.49;98685.38;5058540;28;20175;-68
2024/01/12 07:36:57;;;;;;;57.27;31.63;;;;;;;-1.04;49.18;98685.31;5061372;28;20736;-66
2024/01/12 07:39:23;;;;;;;55.20;29.53;;;;;;;-1.05;49.28;98688.75;5044779;28;20669;-69
2024/01/12 07:41:48;;;;;;;67.50;34.43;;;;;;;-1.14;49.74;98695.88;5052837;28;20460;-68
2024/01/12 07:44:15;;;;;;;62.17;32.10;;;;;;;-1.06;49.59;98694.78;5051931;28;20215;-66
2024/01/12 07:46:41;;;;;;;66.50;33.77;;;;;;;-1.04;49.26;98691.28;5058520;28;20625;-67
2024/01/12 07:49:07;;;;;;;64.70;32.47;;;;;;;-0.85;49.06;98686.44;5055866;28;20949;-68
2024/01/12 07:51:33;;;;;;;63.00;33.50;;;;;;;-0.81;49.37;98695.78;5061756;28;20426;-68
2024/01/12 07:53:58;;;;;;;65.33;33.33;;;;;;;-1.05;49.20;98697.31;5042260;28;20191;-69
2024/01/12 07:56:24;;;;;;;71.70;33.83;;;;;;;-1.19;49.97;98705.44;5056079;28;20214;-70
2024/01/12 07:58:49;;;;;;;67.57;32.57;;;;;;;-1.12;49.99;98709.50;5055032;28;20298;-68
2024/01/12 08:01:16;;;;;;;62.30;32.30;;;;;;;-0.97;49.52;98700.53;5047485;28;20203;-68
2024/01/12 08:03:43;;;;;;;63.20;32.73;;;;;;;-0.76;49.43;98712.84;5045710;28;20182;-68
2024/01/12 08:06:08;;;;;;;62.73;33.30;;;;;;;-0.59;49.14;98704.63;5064289;28;20436;-68
2024/01/12 08:08:34;;;;;;;61.93;32.63;;;;;;;-0.32;48.71;98702.94;5057227;28;20478;-68
2024/01/12 08:10:59;;;;;;;57.13;31.03;;;;;;;-0.09;48.24;98693.63;5046961;28;20218;-67
2024/01/12 08:13:25;;;;;;;62.83;32.40;;;;;;;0.20;47.58;98692.66;5039958;28;20179;-68
2024/01/12 08:15:50;;;;;;;63.73;35.50;;;;;;;0.48;47.02;98698.66;5049336;28;20699;-67
2024/01/12 08:18:16;;;;;;;60.70;31.10;;;;;;;0.91;46.21;98697.13;5049772;28;20281;-68
2024/01/12 08:20:41;;;;;;;62.00;34.03;;;;;;;1.22;45.43;98691.69;5037163;28;20235;-68
2024/01/12 08:23:07;;;;;;;65.77;32.40;;;;;;;1.56;45.46;98687.00;5048454;28;20179;-69
2024/01/12 08:25:32;;;;;;;61.50;34.60;;;;;;;1.80;44.54;98685.19;5059360;28;20209;-69
2024/01/12 08:27:58;;;;;;;65.47;34.93;;;;;;;2.06;44.26;98691.06;5045684;28;20210;-69
2024/01/12 08:30:23;;;;;;;61.23;33.93;;;;;;;2.41;43.13;98693.09;5059493;28;20198;-69
2024/01/12 08:32:49;;;;;;;69.50;38.10;;;;;;;2.64;43.22;98702.47;5056634;28;20192;-67
2024/01/12 08:35:15;;;;;;;63.97;36.60;;;;;;;2.72;42.73;98705.56;5056136;28;20197;-67
2024/01/12 08:37:40;;;;;;;74.10;39.60;;;;;;;2.81;42.28;98717.28;5060878;28;20282;-68
2024/01/12 08:40:06;;;;;;;60.23;32.40;;;;;;;2.96;43.11;98725.28;5049125;28;20221;-68
2024/01/12 08:42:32;;;;;;;64.07;33.47;;;;;;;2.95;43.02;98721.03;5051458;28;20190;-68
2024/01/12 08:44:57;;;;;;;65.50;36.97;;;;;;;3.00;42.43;98729.44;5050861;28;20217;-68
2024/01/12 08:47:23;;;;;;;66.07;36.37;;;;;;;3.15;42.62;98730.50;5048954;28;20681;-68
2024/01/12 08:49:48;;;;;;;65.90;33.57;;;;;;;3.51;42.08;98738.38;5054477;28;20213;-67
2024/01/12 08:52:14;;;;;;;62.47;34.53;;;;;;;3.52;41.46;98739.22;5048698;28;20175;-68
2024/01/12 08:54:39;;;;;;;64.30;35.27;;;;;;;3.56;42.41;98735.59;5066170;28;20702;-67
2024/01/12 08:57:04;;;;;;;63.43;34.90;;;;;;;3.86;42.08;98736.81;5050848;28;20261;-66
2024/01/12 08:59:30;;;;;;;64.13;35.90;;;;;;;4.13;41.84;98724.25;5052561;28;20191;-69
2024/01/12 09:01:57;;;;;;;65.57;35.07;;;;;;;4.19;41.91;98746.47;5054880;28;20210;-68
2024/01/12 09:04:23;;;;;;;62.97;35.40;;;;;;;4.17;42.31;98740.53;5035431;28;20605;-68
2024/01/12 09:06:48;;;;;;;67.00;36.97;;;;;;;4.37;41.45;98743.00;5052504;28;20441;-68
2024/01/12 09:09:14;;;;;;;67.30;37.50;;;;;;;4.68;41.68;98736.25;5060657;28;20179;-68
2024/01/12 09:11:39;;;;;;;69.37;39.90;;;;;;;5.11;40.65;98742.78;5041202;28;20175;-68
2024/01/12 09:14:05;;;;;;;70.60;40.33;;;;;;;5.48;40.12;98746.03;5051553;28;20609;-68
2024/01/12 09:16:30;;;;;;;72.07;41.63;;;;;;;5.66;39.31;98754.59;5059749;28;20226;-71
2024/01/12 09:18:56;;;;;;;79.70;43.60;;;;;;;5.32;40.39;98746.84;5067372;28;20184;-68
2024/01/12 09:21:23;;;;;;;74.13;42.50;;;;;;;5.56;39.81;98751.66;5059008;28;20546;-68
2024/01/12 09:23:48;;;;;;;71.80;41.43;;;;;;;5.59;39.83;98743.69;5051535;28;20661;-68
2024/01/12 09:26:14;;;;;;;74.07;43.60;;;;;;;5.63;39.90;98740.00;5051066;28;20532;-69
2024/01/12 09:28:39;;;;;;;77.67;44.83;;;;;;;5.63;39.90;98745.22;5033023;28;20175;-67
2024/01/12 09:31:06;;;;;;;104.93;53.20;;;;;;;5.76;39.97;98744.53;5049114;28;20588;-68
2024/01/12 09:33:32;;;;;;;75.83;45.30;;;;;;;6.01;40.15;98748.41;5050783;28;20716;-69
2024/01/12 09:35:58;;;;;;;82.23;44.93;;;;;;;6.41;38.55;98743.56;5048780;28;20798;-68
2024/01/12 09:38:23;;;;;;;71.03;43.20;;;;;;;6.57;38.29;98746.94;5057772;28;20436;-68
2024/01/12 09:40:49;;;;;;;73.43;45.30;;;;;;;6.67;38.06;98741.22;5056221;28;20356;-69
2024/01/12 09:43:15;;;;;;;75.90;43.87;;;;;;;6.45;38.91;98752.84;5041259;28;20190;-69
2024/01/12 09:45:43;;;;;;;76.97;44.63;;;;;;;6.77;37.98;98755.38;5056010;28;20440;-68
2024/01/12 09:48:09;;;;;;;77.50;43.33;;;;;;;6.68;37.94;98755.94;5042057;28;20204;-69
2024/01/12 09:50:34;;;;;;;73.63;44.53;;;;;;;6.72;38.15;98753.03;5049940;28;20410;-68
2024/01/12 09:53:00;;;;;;;85.70;43.93;;;;;;;6.81;38.00;98743.81;5048299;28;20555;-68
2024/01/12 09:55:26;;;;;;;80.37;45.13;;;;;;;7.51;36.96;98750.94;5054737;28;20198;-69
2024/01/12 09:57:52;;;;;;;79.67;45.03;;;;;;;7.32;37.22;98745.16;5056865;28;20178;-68
2024/01/12 10:00:18;;;;;;;82.60;44.40;;;;;;;7.67;36.82;98750.81;5056632;28;20244;-68
2024/01/12 10:02:44;;;;;;;77.07;44.33;;;;;;;7.89;35.03;98752.06;5062408;28;20268;-68
2024/01/12 10:05:09;;;;;;;80.67;45.20;;;;;;;7.80;36.17;98755.25;5058778;28;20439;-69
2024/01/12 10:07:35;;;;;;;83.57;46.40;;;;;;;7.21;36.73;98751.88;5050673;28;20186;-68
2024/01/12 10:10:00;;;;;;;74.70;46.80;;;;;;;7.40;37.15;98740.31;5052912;28;20193;-70
2024/01/12 10:12:26;;;;;;;79.50;46.47;;;;;;;7.89;35.93;98725.13;5037289;28;20201;-69
2024/01/12 10:15:02;;;;;;;87.00;46.00;;;;;;;8.11;35.82;98727.19;5057634;28;20217;-69
2024/01/12 10:17:28;;;;;;;84.03;47.50;;;;;;;7.99;35.90;98728.81;5046703;28;20303;-68
2024/01/12 10:19:55;;;;;;;87.10;49.67;;;;;;;7.84;35.94;98728.84;5063486;28;20425;-68
2024/01/12 10:22:20;;;;;;;77.53;46.43;;;;;;;7.95;35.86;98724.72;5046013;28;20469;-69
2024/01/12 10:24:46;;;;;;;90.73;48.83;;;;;;;7.84;35.37;98723.63;5034439;28;20419;-68
2024/01/12 10:27:12;;;;;;;79.60;47.80;;;;;;;7.67;36.40;98716.06;5061510;28;20198;-68
2024/01/12 10:29:38;;;;;;;82.97;46.13;;;;;;;7.80;35.98;98718.72;5053796;28;20651;-68
2024/01/12 10:32:04;;;;;;;78.53;46.97;;;;;;;7.98;35.81;98719.31;5054984;28;20515;-68
2024/01/12 10:34:33;;;;;;;74.27;44.90;;;;;;;8.62;35.57;98718.66;5059121;28;20281;-69
2024/01/12 10:36:59;;;;;;;82.10;47.93;;;;;;;8.76;34.73;98713.34;5051740;28;20445;-69
2024/01/12 10:39:27;;;;;;;80.67;47.93;;;;;;;8.76;34.39;98718.56;5078567;28;20416;-69
2024/01/12 10:41:55;;;;;;;75.20;46.80;;;;;;;8.82;34.25;98714.69;5073894;28;20516;-68
2024/01/12 10:44:22;;;;;;;75.80;44.17;;;;;;;8.96;34.20;98711.13;5067473;28;20425;-68
2024/01/12 10:46:51;;;;;;;83.97;46.67;;;;;;;8.69;34.24;98699.03;5045549;28;20498;-68
2024/01/12 10:49:17;;;;;;;81.60;47.37;;;;;;;8.43;35.16;98700.72;5054012;28;20486;-67
2024/01/12 10:51:58;;;;;;;81.53;47.83;;;;;;;8.24;35.39;98708.94;5054952;28;20475;-69
2024/01/12 10:54:28;;;;;;;76.50;45.93;;;;;;;8.35;35.01;98711.69;5062281;28;20409;-70
2024/01/12 10:56:55;;;;;;;82.00;47.63;;;;;;;8.48;35.36;98700.44;5051579;28;20442;-69
2024/01/12 10:59:22;;;;;;;76.83;45.60;;;;;;;8.21;35.51;98699.53;5055246;28;20512;-68
2024/01/12 11:01:48;;;;;;;76.20;45.10;;;;;;;8.42;35.55;98697.28;5053825;28;20505;-68
2024/01/12 11:04:13;;;;;;;76.63;45.63;;;;;;;8.92;34.73;98696.63;5023473;28;20446;-69
2024/01/12 11:06:40;;;;;;;75.07;46.90;;;;;;;9.15;34.21;98702.84;5052521;28;20474;-69
2024/01/12 11:09:07;;;;;;;73.53;45.43;;;;;;;9.29;34.50;98701.91;5060450;28;20598;-69
2024/01/12 11:11:43;;;;;;;78.13;45.07;;;;;;;9.35;33.65;98698.84;5033996;28;20410;-69
2024/01/12 11:14:08;;;;;;;77.27;47.00;;;;;;;8.90;34.79;98701.09;5048537;28;20466;-69